sensor_id;sensor_type;location;lat;lon;timestamp;temperature;humidity
7958;DHT22;4024;52.172;5.378;2023-06-22T00:00:55;22.80;99.90
7958;DHT22;4024;52.172;5.378;2023-06-22T00:03:24;22.60;99.90
7958;DHT22;4024;52.172;5.378;2023-06-22T00:05:51;22.60;99.90
7958;DHT22;4024;52.172;5.378;2023-06-22T00:08:17;22.60;99.90
7958;DHT22;4024;52.172;5.378;2023-06-22T00:10:44;22.60;99.90
7958;DHT22;4024;52.172;5.378;2023-06-22T00:13:10;22.60;99.90
7958;DHT22;4024;52.172;5.378;2023-06-22T00:15:37;22.60;99.90
7958;DHT22;4024;52.172;5.378;2023-06-22T00:18:04;22.50;99.90
7958;DHT22;4024;52.172;5.378;2023-06-22T00:20:30;22.50;99.90
7958;DHT22;4024;52.172;5.378;2023-06-22T00:22:57;22.50;99.90
7958;DHT22;4024;52.172;5.378;2023-06-22T00:25:23;22.40;99.90
7958;DHT22;4024;52.172;5.378;2023-06-22T00:27:49;22.40;99.90
7958;DHT22;4024;52.172;5.378;2023-06-22T00:30:16;22.40;99.90
7958;DHT22;4024;52.172;5.378;2023-06-22T00:32:45;22.30;99.90
7958;DHT22;4024;52.172;5.378;2023-06-22T00:35:12;22.30;99.90
7958;DHT22;4024;52.172;5.378;2023-06-22T00:37:38;22.30;99.90
7958;DHT22;4024;52.172;5.378;2023-06-22T00:40:06;22.20;99.90
7958;DHT22;4024;52.172;5.378;2023-06-22T00:42:34;22.20;99.90
7958;DHT22;4024;52.172;5.378;2023-06-22T00:44:59;22.20;99.90
7958;DHT22;4024;52.172;5.378;2023-06-22T00:47:27;22.20;99.90
7958;DHT22;4024;52.172;5.378;2023-06-22T00:49:53;22.10;99.90
7958;DHT22;4024;52.172;5.378;2023-06-22T00:52:20;22.10;99.90
7958;DHT22;4024;52.172;5.378;2023-06-22T00:54:47;22.00;99.90
7958;DHT22;4024;52.172;5.378;2023-06-22T00:57:17;22.00;99.90
7958;DHT22;4024;52.172;5.378;2023-06-22T00:59:44;22.00;99.90
7958;DHT22;4024;52.172;5.378;2023-06-22T01:02:10;21.90;99.90
7958;DHT22;4024;52.172;5.378;2023-06-22T01:04:37;21.90;99.90
7958;DHT22;4024;52.172;5.378;2023-06-22T01:07:25;21.80;99.90
7958;DHT22;4024;52.172;5.378;2023-06-22T01:10:16;21.80;99.90
7958;DHT22;4024;52.172;5.378;2023-06-22T01:12:55;21.80;99.90
7958;DHT22;4024;52.172;5.378;2023-06-22T01:15:28;21.70;99.90
7958;DHT22;4024;52.172;5.378;2023-06-22T01:17:56;21.70;99.90
7958;DHT22;4024;52.172;5.378;2023-06-22T01:20:23;21.70;99.90
7958;DHT22;4024;52.172;5.378;2023-06-22T01:31:08;21.50;99.90
7958;DHT22;4024;52.172;5.378;2023-06-22T01:33:37;21.40;99.90
7958;DHT22;4024;52.172;5.378;2023-06-22T01:36:05;21.40;99.90
7958;DHT22;4024;52.172;5.378;2023-06-22T01:38:33;21.30;99.90
7958;DHT22;4024;52.172;5.378;2023-06-22T01:40:59;21.30;99.90
7958;DHT22;4024;52.172;5.378;2023-06-22T01:43:26;21.30;99.90
7958;DHT22;4024;52.172;5.378;2023-06-22T01:45:54;21.20;99.90
7958;DHT22;4024;52.172;5.378;2023-06-22T01:48:20;21.20;99.90
7958;DHT22;4024;52.172;5.378;2023-06-22T01:50:46;21.10;99.90
7958;DHT22;4024;52.172;5.378;2023-06-22T01:53:12;21.10;99.90
7958;DHT22;4024;52.172;5.378;2023-06-22T01:55:38;21.10;99.90
7958;DHT22;4024;52.172;5.378;2023-06-22T01:58:04;21.10;99.90
7958;DHT22;4024;52.172;5.378;2023-06-22T02:00:32;21.00;99.90
7958;DHT22;4024;52.172;5.378;2023-06-22T02:03:14;21.00;99.90
7958;DHT22;4024;52.172;5.378;2023-06-22T02:05:56;21.00;99.90
7958;DHT22;4024;52.172;5.378;2023-06-22T02:08:30;20.90;99.90
7958;DHT22;4024;52.172;5.378;2023-06-22T02:10:58;20.90;99.90
7958;DHT22;4024;52.172;5.378;2023-06-22T02:13:25;20.80;99.90
7958;DHT22;4024;52.172;5.378;2023-06-22T02:15:51;20.90;99.90
7958;DHT22;4024;52.172;5.378;2023-06-22T02:18:16;20.80;99.90
7958;DHT22;4024;52.172;5.378;2023-06-22T02:20:42;20.80;99.90
7958;DHT22;4024;52.172;5.378;2023-06-22T02:23:08;20.70;99.90
7958;DHT22;4024;52.172;5.378;2023-06-22T02:25:35;20.70;99.90
7958;DHT22;4024;52.172;5.378;2023-06-22T02:28:01;20.70;99.90
7958;DHT22;4024;52.172;5.378;2023-06-22T02:30:26;20.70;99.90
7958;DHT22;4024;52.172;5.378;2023-06-22T02:32:52;20.60;99.90
7958;DHT22;4024;52.172;5.378;2023-06-22T02:35:25;20.60;99.90
7958;DHT22;4024;52.172;5.378;2023-06-22T02:37:51;20.50;99.90
7958;DHT22;4024;52.172;5.378;2023-06-22T02:40:18;20.60;99.90
7958;DHT22;4024;52.172;5.378;2023-06-22T02:42:43;20.50;99.90
7958;DHT22;4024;52.172;5.378;2023-06-22T02:45:09;20.50;99.90
7958;DHT22;4024;52.172;5.378;2023-06-22T02:47:35;20.50;99.90
7958;DHT22;4024;52.172;5.378;2023-06-22T02:50:01;20.40;99.90
7958;DHT22;4024;52.172;5.378;2023-06-22T02:52:27;20.40;99.90
7958;DHT22;4024;52.172;5.378;2023-06-22T02:54:52;20.40;99.90
7958;DHT22;4024;52.172;5.378;2023-06-22T02:57:18;20.40;99.90
7958;DHT22;4024;52.172;5.378;2023-06-22T02:59:43;20.40;99.90
7958;DHT22;4024;52.172;5.378;2023-06-22T03:02:09;20.30;99.90
7958;DHT22;4024;52.172;5.378;2023-06-22T03:04:35;20.30;99.90
7958;DHT22;4024;52.172;5.378;2023-06-22T03:07:01;20.30;99.90
7958;DHT22;4024;52.172;5.378;2023-06-22T03:09:28;20.30;99.90
7958;DHT22;4024;52.172;5.378;2023-06-22T03:11:54;20.20;99.90
7958;DHT22;4024;52.172;5.378;2023-06-22T03:14:20;20.20;99.90
7958;DHT22;4024;52.172;5.378;2023-06-22T03:16:47;20.20;99.90
7958;DHT22;4024;52.172;5.378;2023-06-22T03:19:13;20.20;99.90
7958;DHT22;4024;52.172;5.378;2023-06-22T03:21:39;20.20;99.90
7958;DHT22;4024;52.172;5.378;2023-06-22T03:24:06;20.10;99.90
7958;DHT22;4024;52.172;5.378;2023-06-22T03:26:32;20.10;99.90
7958;DHT22;4024;52.172;5.378;2023-06-22T03:28:57;20.10;99.90
7958;DHT22;4024;52.172;5.378;2023-06-22T03:31:23;20.00;99.90
7958;DHT22;4024;52.172;5.378;2023-06-22T03:33:49;20.00;99.90
7958;DHT22;4024;52.172;5.378;2023-06-22T03:36:17;20.00;99.90
7958;DHT22;4024;52.172;5.378;2023-06-22T03:38:46;20.00;99.90
7958;DHT22;4024;52.172;5.378;2023-06-22T03:41:12;20.00;99.90
7958;DHT22;4024;52.172;5.378;2023-06-22T03:43:38;20.00;99.90
7958;DHT22;4024;52.172;5.378;2023-06-22T03:46:03;19.90;99.90
7958;DHT22;4024;52.172;5.378;2023-06-22T03:48:29;20.00;99.90
7958;DHT22;4024;52.172;5.378;2023-06-22T03:50:55;19.90;99.90
7958;DHT22;4024;52.172;5.378;2023-06-22T03:53:20;19.90;99.90
7958;DHT22;4024;52.172;5.378;2023-06-22T03:55:52;19.90;99.90
7958;DHT22;4024;52.172;5.378;2023-06-22T03:58:19;19.90;99.90
7958;DHT22;4024;52.172;5.378;2023-06-22T04:00:49;19.90;99.90
7958;DHT22;4024;52.172;5.378;2023-06-22T04:03:15;19.90;99.90
7958;DHT22;4024;52.172;5.378;2023-06-22T04:05:41;19.90;99.90
7958;DHT22;4024;52.172;5.378;2023-06-22T04:08:07;19.90;99.90
7958;DHT22;4024;52.172;5.378;2023-06-22T04:10:33;19.90;99.90
7958;DHT22;4024;52.172;5.378;2023-06-22T04:12:59;19.90;99.90
7958;DHT22;4024;52.172;5.378;2023-06-22T04:15:25;19.90;99.90
7958;DHT22;4024;52.172;5.378;2023-06-22T04:17:50;19.90;99.90
7958;DHT22;4024;52.172;5.378;2023-06-22T04:20:16;19.90;99.90
7958;DHT22;4024;52.172;5.378;2023-06-22T04:22:41;19.90;99.90
7958;DHT22;4024;52.172;5.378;2023-06-22T04:25:07;19.90;99.90
7958;DHT22;4024;52.172;5.378;2023-06-22T04:27:33;19.80;99.90
7958;DHT22;4024;52.172;5.378;2023-06-22T04:30:04;19.90;99.90
7958;DHT22;4024;52.172;5.378;2023-06-22T04:32:29;19.90;99.90
7958;DHT22;4024;52.172;5.378;2023-06-22T04:34:55;20.00;99.90
7958;DHT22;4024;52.172;5.378;2023-06-22T04:37:20;20.00;99.90
7958;DHT22;4024;52.172;5.378;2023-06-22T04:39:49;20.10;99.90
7958;DHT22;4024;52.172;5.378;2023-06-22T04:42:14;20.30;99.90
7958;DHT22;4024;52.172;5.378;2023-06-22T04:44:40;20.50;99.90
7958;DHT22;4024;52.172;5.378;2023-06-22T04:47:07;20.70;99.90
7958;DHT22;4024;52.172;5.378;2023-06-22T04:49:34;21.00;99.90
7958;DHT22;4024;52.172;5.378;2023-06-22T04:52:07;21.40;99.90
7958;DHT22;4024;52.172;5.378;2023-06-22T04:54:34;21.80;99.90
7958;DHT22;4024;52.172;5.378;2023-06-22T04:57:01;22.30;99.90
7958;DHT22;4024;52.172;5.378;2023-06-22T04:59:28;22.80;99.90
7958;DHT22;4024;52.172;5.378;2023-06-22T05:02:01;23.20;99.90
7958;DHT22;4024;52.172;5.378;2023-06-22T05:04:29;23.60;99.90
7958;DHT22;4024;52.172;5.378;2023-06-22T05:06:59;24.00;99.90
7958;DHT22;4024;52.172;5.378;2023-06-22T05:09:25;24.40;99.90
7958;DHT22;4024;52.172;5.378;2023-06-22T05:11:51;24.70;99.90
7958;DHT22;4024;52.172;5.378;2023-06-22T05:14:17;24.90;99.90
7958;DHT22;4024;52.172;5.378;2023-06-22T05:16:43;25.00;99.90
7958;DHT22;4024;52.172;5.378;2023-06-22T05:19:09;25.20;99.90
7958;DHT22;4024;52.172;5.378;2023-06-22T05:21:35;25.30;99.90
7958;DHT22;4024;52.172;5.378;2023-06-22T05:24:01;25.30;99.90
7958;DHT22;4024;52.172;5.378;2023-06-22T05:26:32;25.40;99.90
7958;DHT22;4024;52.172;5.378;2023-06-22T05:28:59;25.40;99.90
7958;DHT22;4024;52.172;5.378;2023-06-22T05:31:26;25.40;99.90
7958;DHT22;4024;52.172;5.378;2023-06-22T05:33:53;25.70;99.90
7958;DHT22;4024;52.172;5.378;2023-06-22T05:36:19;25.80;99.90
7958;DHT22;4024;52.172;5.378;2023-06-22T05:38:51;25.90;99.90
7958;DHT22;4024;52.172;5.378;2023-06-22T05:41:17;26.10;99.90
7958;DHT22;4024;52.172;5.378;2023-06-22T05:43:42;26.10;99.90
7958;DHT22;4024;52.172;5.378;2023-06-22T05:46:08;26.20;99.90
7958;DHT22;4024;52.172;5.378;2023-06-22T05:48:33;26.20;99.90
7958;DHT22;4024;52.172;5.378;2023-06-22T05:50:59;26.20;99.90
7958;DHT22;4024;52.172;5.378;2023-06-22T05:53:25;26.10;99.90
7958;DHT22;4024;52.172;5.378;2023-06-22T05:55:50;26.10;99.90
7958;DHT22;4024;52.172;5.378;2023-06-22T05:58:16;26.00;99.90
7958;DHT22;4024;52.172;5.378;2023-06-22T06:00:42;25.90;99.90
7958;DHT22;4024;52.172;5.378;2023-06-22T06:03:09;25.90;99.90
7958;DHT22;4024;52.172;5.378;2023-06-22T06:05:35;25.80;99.90
7958;DHT22;4024;52.172;5.378;2023-06-22T06:08:02;25.80;99.90
7958;DHT22;4024;52.172;5.378;2023-06-22T06:10:28;25.70;99.90
7958;DHT22;4024;52.172;5.378;2023-06-22T06:12:57;25.80;99.90
7958;DHT22;4024;52.172;5.378;2023-06-22T06:15:23;25.90;99.90
7958;DHT22;4024;52.172;5.378;2023-06-22T06:17:51;26.00;99.90
7958;DHT22;4024;52.172;5.378;2023-06-22T06:20:22;26.10;99.90
7958;DHT22;4024;52.172;5.378;2023-06-22T06:22:48;26.40;99.90
7958;DHT22;4024;52.172;5.378;2023-06-22T06:25:14;26.70;99.90
7958;DHT22;4024;52.172;5.378;2023-06-22T06:27:46;26.90;99.90
7958;DHT22;4024;52.172;5.378;2023-06-22T06:30:12;27.10;99.90
7958;DHT22;4024;52.172;5.378;2023-06-22T06:32:39;27.40;99.90
7958;DHT22;4024;52.172;5.378;2023-06-22T06:35:09;27.50;99.90
7958;DHT22;4024;52.172;5.378;2023-06-22T06:37:39;27.70;99.90
7958;DHT22;4024;52.172;5.378;2023-06-22T06:40:08;27.90;99.90
7958;DHT22;4024;52.172;5.378;2023-06-22T06:42:39;28.10;99.90
7958;DHT22;4024;52.172;5.378;2023-06-22T06:45:08;28.20;99.90
7958;DHT22;4024;52.172;5.378;2023-06-22T06:47:33;28.30;99.90
7958;DHT22;4024;52.172;5.378;2023-06-22T06:49:59;28.50;99.90
7958;DHT22;4024;52.172;5.378;2023-06-22T06:52:25;28.70;99.90
7958;DHT22;4024;52.172;5.378;2023-06-22T06:54:51;28.90;99.90
7958;DHT22;4024;52.172;5.378;2023-06-22T06:57:18;29.10;99.90
7958;DHT22;4024;52.172;5.378;2023-06-22T06:59:43;29.40;99.90
7958;DHT22;4024;52.172;5.378;2023-06-22T07:02:09;29.70;99.90
7958;DHT22;4024;52.172;5.378;2023-06-22T07:04:34;29.90;99.90
7958;DHT22;4024;52.172;5.378;2023-06-22T07:07:02;30.20;99.90
7958;DHT22;4024;52.172;5.378;2023-06-22T07:09:28;30.30;99.90
7958;DHT22;4024;52.172;5.378;2023-06-22T07:11:53;30.50;99.90
7958;DHT22;4024;52.172;5.378;2023-06-22T07:14:19;30.60;99.90
7958;DHT22;4024;52.172;5.378;2023-06-22T07:16:44;30.70;99.90
7958;DHT22;4024;52.172;5.378;2023-06-22T07:19:13;30.80;99.90
7958;DHT22;4024;52.172;5.378;2023-06-22T07:21:39;30.80;99.90
7958;DHT22;4024;52.172;5.378;2023-06-22T07:24:07;30.90;99.90
7958;DHT22;4024;52.172;5.378;2023-06-22T07:26:33;30.90;99.90
7958;DHT22;4024;52.172;5.378;2023-06-22T07:28:59;30.80;99.90
7958;DHT22;4024;52.172;5.378;2023-06-22T07:31:25;30.80;99.90
7958;DHT22;4024;52.172;5.378;2023-06-22T07:33:51;30.80;99.90
7958;DHT22;4024;52.172;5.378;2023-06-22T07:36:17;30.80;99.90
7958;DHT22;4024;52.172;5.378;2023-06-22T07:38:43;30.80;99.90
7958;DHT22;4024;52.172;5.378;2023-06-22T07:41:08;31.00;99.90
7958;DHT22;4024;52.172;5.378;2023-06-22T07:43:34;31.00;99.90
7958;DHT22;4024;52.172;5.378;2023-06-22T07:46:03;31.10;99.90
7958;DHT22;4024;52.172;5.378;2023-06-22T07:48:29;31.30;99.90
7958;DHT22;4024;52.172;5.378;2023-06-22T07:50:55;31.30;99.90
7958;DHT22;4024;52.172;5.378;2023-06-22T07:53:21;31.30;99.90
7958;DHT22;4024;52.172;5.378;2023-06-22T07:55:47;31.40;99.90
7958;DHT22;4024;52.172;5.378;2023-06-22T07:58:13;31.40;99.90
7958;DHT22;4024;52.172;5.378;2023-06-22T08:00:39;31.40;99.90
7958;DHT22;4024;52.172;5.378;2023-06-22T08:03:04;31.50;99.90
7958;DHT22;4024;52.172;5.378;2023-06-22T08:05:31;31.50;99.90
7958;DHT22;4024;52.172;5.378;2023-06-22T08:07:57;31.50;99.90
7958;DHT22;4024;52.172;5.378;2023-06-22T08:10:22;31.60;99.90
7958;DHT22;4024;52.172;5.378;2023-06-22T08:12:48;31.50;99.90
7958;DHT22;4024;52.172;5.378;2023-06-22T08:15:13;31.70;99.90
7958;DHT22;4024;52.172;5.378;2023-06-22T08:17:39;31.70;99.90
7958;DHT22;4024;52.172;5.378;2023-06-22T08:20:06;31.60;99.90
7958;DHT22;4024;52.172;5.378;2023-06-22T08:22:37;31.60;99.90
7958;DHT22;4024;52.172;5.378;2023-06-22T08:25:03;31.70;99.90
7958;DHT22;4024;52.172;5.378;2023-06-22T08:27:32;31.70;99.90
7958;DHT22;4024;52.172;5.378;2023-06-22T08:29:58;31.70;99.90
7958;DHT22;4024;52.172;5.378;2023-06-22T08:32:25;31.70;99.90
7958;DHT22;4024;52.172;5.378;2023-06-22T08:34:56;31.80;99.90
7958;DHT22;4024;52.172;5.378;2023-06-22T08:37:22;31.90;99.90
7958;DHT22;4024;52.172;5.378;2023-06-22T08:39:59;31.90;99.90
7958;DHT22;4024;52.172;5.378;2023-06-22T08:42:26;31.90;99.90
7958;DHT22;4024;52.172;5.378;2023-06-22T08:44:52;31.90;99.90
7958;DHT22;4024;52.172;5.378;2023-06-22T08:47:18;31.90;99.90
7958;DHT22;4024;52.172;5.378;2023-06-22T08:49:43;31.90;99.90
7958;DHT22;4024;52.172;5.378;2023-06-22T08:52:09;31.90;99.90
7958;DHT22;4024;52.172;5.378;2023-06-22T08:54:34;31.80;98.90
7958;DHT22;4024;52.172;5.378;2023-06-22T08:57:01;31.60;99.30
7958;DHT22;4024;52.172;5.378;2023-06-22T08:59:27;31.50;99.10
7958;DHT22;4024;52.172;5.378;2023-06-22T09:01:52;31.30;98.90
7958;DHT22;4024;52.172;5.378;2023-06-22T09:04:18;31.10;99.90
7958;DHT22;4024;52.172;5.378;2023-06-22T09:06:44;30.90;99.90
7958;DHT22;4024;52.172;5.378;2023-06-22T09:09:13;30.80;99.90
7958;DHT22;4024;52.172;5.378;2023-06-22T09:11:39;30.60;99.90
7958;DHT22;4024;52.172;5.378;2023-06-22T09:14:05;30.50;99.90
7958;DHT22;4024;52.172;5.378;2023-06-22T09:16:30;30.40;99.90
7958;DHT22;4024;52.172;5.378;2023-06-22T09:18:56;30.30;99.90
7958;DHT22;4024;52.172;5.378;2023-06-22T09:21:22;30.30;99.90
7958;DHT22;4024;52.172;5.378;2023-06-22T09:23:48;30.20;99.90
7958;DHT22;4024;52.172;5.378;2023-06-22T09:26:17;30.20;99.90
7958;DHT22;4024;52.172;5.378;2023-06-22T09:28:43;30.20;99.90
7958;DHT22;4024;52.172;5.378;2023-06-22T09:31:08;30.10;99.90
7958;DHT22;4024;52.172;5.378;2023-06-22T09:33:34;30.10;99.90
7958;DHT22;4024;52.172;5.378;2023-06-22T09:36:00;30.00;99.90
7958;DHT22;4024;52.172;5.378;2023-06-22T09:38:26;30.00;99.90
7958;DHT22;4024;52.172;5.378;2023-06-22T09:40:51;30.00;99.90
7958;DHT22;4024;52.172;5.378;2023-06-22T09:43:17;29.90;99.90
7958;DHT22;4024;52.172;5.378;2023-06-22T09:45:42;29.90;99.90
7958;DHT22;4024;52.172;5.378;2023-06-22T09:48:08;29.80;99.90
7958;DHT22;4024;52.172;5.378;2023-06-22T09:50:35;29.80;99.90
7958;DHT22;4024;52.172;5.378;2023-06-22T09:53:02;29.80;99.90
7958;DHT22;4024;52.172;5.378;2023-06-22T09:55:27;29.80;99.90
7958;DHT22;4024;52.172;5.378;2023-06-22T09:57:53;29.90;99.90
7958;DHT22;4024;52.172;5.378;2023-06-22T10:00:20;29.90;99.90
7958;DHT22;4024;52.172;5.378;2023-06-22T10:02:47;29.80;99.90
7958;DHT22;4024;52.172;5.378;2023-06-22T10:05:12;29.80;99.90
7958;DHT22;4024;52.172;5.378;2023-06-22T10:07:38;29.80;99.90
7958;DHT22;4024;52.172;5.378;2023-06-22T10:10:08;29.80;99.90
7958;DHT22;4024;52.172;5.378;2023-06-22T10:12:34;29.80;99.90
7958;DHT22;4024;52.172;5.378;2023-06-22T10:14:59;29.70;99.90
7958;DHT22;4024;52.172;5.378;2023-06-22T10:17:25;29.70;99.90
7958;DHT22;4024;52.172;5.378;2023-06-22T10:19:50;29.60;99.90
7958;DHT22;4024;52.172;5.378;2023-06-22T10:22:16;29.60;99.90
7958;DHT22;4024;52.172;5.378;2023-06-22T10:24:41;29.50;99.90
7958;DHT22;4024;52.172;5.378;2023-06-22T10:27:11;29.40;99.90
7958;DHT22;4024;52.172;5.378;2023-06-22T10:29:37;29.20;99.90
7958;DHT22;4024;52.172;5.378;2023-06-22T10:32:03;29.10;99.90
7958;DHT22;4024;52.172;5.378;2023-06-22T10:34:28;29.00;99.90
7958;DHT22;4024;52.172;5.378;2023-06-22T10:36:54;29.00;99.90
7958;DHT22;4024;52.172;5.378;2023-06-22T10:39:20;28.90;99.90
7958;DHT22;4024;52.172;5.378;2023-06-22T10:41:45;28.80;99.90
7958;DHT22;4024;52.172;5.378;2023-06-22T10:44:11;28.70;99.90
7958;DHT22;4024;52.172;5.378;2023-06-22T10:46:37;28.60;99.90
7958;DHT22;4024;52.172;5.378;2023-06-22T10:49:03;28.60;99.90
7958;DHT22;4024;52.172;5.378;2023-06-22T10:51:28;28.50;99.90
7958;DHT22;4024;52.172;5.378;2023-06-22T10:53:54;28.40;99.90
7958;DHT22;4024;52.172;5.378;2023-06-22T10:56:20;28.40;99.90
7958;DHT22;4024;52.172;5.378;2023-06-22T10:58:45;28.40;99.90
7958;DHT22;4024;52.172;5.378;2023-06-22T11:01:11;28.30;99.90
7958;DHT22;4024;52.172;5.378;2023-06-22T11:03:37;28.30;99.90
7958;DHT22;4024;52.172;5.378;2023-06-22T11:06:02;28.20;99.90
7958;DHT22;4024;52.172;5.378;2023-06-22T11:08:28;28.20;99.90
7958;DHT22;4024;52.172;5.378;2023-06-22T11:10:54;28.20;99.90
7958;DHT22;4024;52.172;5.378;2023-06-22T11:13:19;28.10;99.90
7958;DHT22;4024;52.172;5.378;2023-06-22T11:15:45;28.10;99.90
7958;DHT22;4024;52.172;5.378;2023-06-22T11:18:10;28.10;99.90
7958;DHT22;4024;52.172;5.378;2023-06-22T11:20:36;28.00;99.90
7958;DHT22;4024;52.172;5.378;2023-06-22T11:23:06;28.10;99.90
7958;DHT22;4024;52.172;5.378;2023-06-22T11:25:33;28.00;99.90
7958;DHT22;4024;52.172;5.378;2023-06-22T11:28:04;28.00;99.90
7958;DHT22;4024;52.172;5.378;2023-06-22T11:30:30;28.10;99.90
7958;DHT22;4024;52.172;5.378;2023-06-22T11:32:58;28.00;99.90
7958;DHT22;4024;52.172;5.378;2023-06-22T11:35:23;28.10;99.90
7958;DHT22;4024;52.172;5.378;2023-06-22T11:37:49;28.10;99.90
7958;DHT22;4024;52.172;5.378;2023-06-22T11:40:14;28.10;99.90
7958;DHT22;4024;52.172;5.378;2023-06-22T11:42:40;28.20;99.90
7958;DHT22;4024;52.172;5.378;2023-06-22T11:45:07;28.10;99.90
7958;DHT22;4024;52.172;5.378;2023-06-22T11:47:32;28.20;99.90
7958;DHT22;4024;52.172;5.378;2023-06-22T11:49:58;28.20;99.90
7958;DHT22;4024;52.172;5.378;2023-06-22T11:52:23;28.20;99.90
7958;DHT22;4024;52.172;5.378;2023-06-22T11:54:49;28.30;99.90
7958;DHT22;4024;52.172;5.378;2023-06-22T11:57:14;28.30;99.90
7958;DHT22;4024;52.172;5.378;2023-06-22T11:59:40;28.30;99.90
7958;DHT22;4024;52.172;5.378;2023-06-22T12:02:06;28.40;99.90
7958;DHT22;4024;52.172;5.378;2023-06-22T12:04:33;28.40;99.90
7958;DHT22;4024;52.172;5.378;2023-06-22T12:06:58;28.40;99.90
7958;DHT22;4024;52.172;5.378;2023-06-22T12:09:24;28.50;99.90
7958;DHT22;4024;52.172;5.378;2023-06-22T12:11:49;28.50;99.90
7958;DHT22;4024;52.172;5.378;2023-06-22T12:14:15;28.50;99.90
7958;DHT22;4024;52.172;5.378;2023-06-22T12:16:41;28.40;99.90
7958;DHT22;4024;52.172;5.378;2023-06-22T12:19:06;28.50;99.90
7958;DHT22;4024;52.172;5.378;2023-06-22T12:21:32;28.50;99.90
7958;DHT22;4024;52.172;5.378;2023-06-22T12:23:57;28.50;99.90
7958;DHT22;4024;52.172;5.378;2023-06-22T12:26:23;28.50;99.90
7958;DHT22;4024;52.172;5.378;2023-06-22T12:28:48;28.50;99.90
7958;DHT22;4024;52.172;5.378;2023-06-22T12:31:14;28.40;99.90
7958;DHT22;4024;52.172;5.378;2023-06-22T12:33:40;28.40;99.90
7958;DHT22;4024;52.172;5.378;2023-06-22T12:36:05;28.40;99.90
7958;DHT22;4024;52.172;5.378;2023-06-22T12:38:31;28.40;99.90
7958;DHT22;4024;52.172;5.378;2023-06-22T12:40:57;28.40;99.90
7958;DHT22;4024;52.172;5.378;2023-06-22T12:43:22;28.30;99.90
7958;DHT22;4024;52.172;5.378;2023-06-22T12:45:48;28.30;99.90
7958;DHT22;4024;52.172;5.378;2023-06-22T12:48:14;28.30;99.90
7958;DHT22;4024;52.172;5.378;2023-06-22T12:50:39;28.30;99.90
7958;DHT22;4024;52.172;5.378;2023-06-22T12:53:05;28.30;99.90
7958;DHT22;4024;52.172;5.378;2023-06-22T12:55:32;28.20;99.90
7958;DHT22;4024;52.172;5.378;2023-06-22T12:57:57;28.20;99.90
7958;DHT22;4024;52.172;5.378;2023-06-22T13:00:23;28.10;99.90
7958;DHT22;4024;52.172;5.378;2023-06-22T13:02:49;28.00;99.90
7958;DHT22;4024;52.172;5.378;2023-06-22T13:05:14;27.90;99.90
7958;DHT22;4024;52.172;5.378;2023-06-22T13:07:40;27.80;99.90
7958;DHT22;4024;52.172;5.378;2023-06-22T13:10:08;27.70;99.90
7958;DHT22;4024;52.172;5.378;2023-06-22T13:12:33;27.70;99.90
7958;DHT22;4024;52.172;5.378;2023-06-22T13:14:59;27.60;99.90
7958;DHT22;4024;52.172;5.378;2023-06-22T13:17:24;27.50;99.90
7958;DHT22;4024;52.172;5.378;2023-06-22T13:19:50;27.50;99.90
7958;DHT22;4024;52.172;5.378;2023-06-22T13:22:34;27.40;99.90
7958;DHT22;4024;52.172;5.378;2023-06-22T13:25:06;27.40;99.90
7958;DHT22;4024;52.172;5.378;2023-06-22T13:27:32;27.30;99.90
7958;DHT22;4024;52.172;5.378;2023-06-22T13:29:58;27.20;99.90
7958;DHT22;4024;52.172;5.378;2023-06-22T13:32:23;27.10;99.90
7958;DHT22;4024;52.172;5.378;2023-06-22T13:34:49;27.10;99.90
7958;DHT22;4024;52.172;5.378;2023-06-22T13:37:15;26.90;99.90
7958;DHT22;4024;52.172;5.378;2023-06-22T13:39:41;26.90;99.90
7958;DHT22;4024;52.172;5.378;2023-06-22T13:42:07;26.80;99.90
7958;DHT22;4024;52.172;5.378;2023-06-22T13:44:32;26.70;99.90
7958;DHT22;4024;52.172;5.378;2023-06-22T13:46:58;26.70;99.90
7958;DHT22;4024;52.172;5.378;2023-06-22T13:49:24;26.70;99.90
7958;DHT22;4024;52.172;5.378;2023-06-22T13:51:50;26.60;99.90
7958;DHT22;4024;52.172;5.378;2023-06-22T13:54:16;26.50;99.90
7958;DHT22;4024;52.172;5.378;2023-06-22T13:56:42;26.50;99.90
7958;DHT22;4024;52.172;5.378;2023-06-22T13:59:07;26.40;99.90
7958;DHT22;4024;52.172;5.378;2023-06-22T14:01:35;26.40;99.90
7958;DHT22;4024;52.172;5.378;2023-06-22T14:04:01;26.40;99.90
7958;DHT22;4024;52.172;5.378;2023-06-22T14:06:29;26.30;99.90
7958;DHT22;4024;52.172;5.378;2023-06-22T14:08:55;26.20;99.90
7958;DHT22;4024;52.172;5.378;2023-06-22T14:11:21;26.20;99.90
7958;DHT22;4024;52.172;5.378;2023-06-22T14:13:47;26.10;99.90
7958;DHT22;4024;52.172;5.378;2023-06-22T14:16:12;26.10;99.90
7958;DHT22;4024;52.172;5.378;2023-06-22T14:18:38;26.00;99.90
7958;DHT22;4024;52.172;5.378;2023-06-22T14:21:04;25.90;99.90
7958;DHT22;4024;52.172;5.378;2023-06-22T14:23:29;25.90;99.90
7958;DHT22;4024;52.172;5.378;2023-06-22T14:25:55;25.80;99.90
7958;DHT22;4024;52.172;5.378;2023-06-22T14:28:21;25.70;99.90
7958;DHT22;4024;52.172;5.378;2023-06-22T14:30:46;25.80;99.90
7958;DHT22;4024;52.172;5.378;2023-06-22T14:33:12;25.70;99.90
7958;DHT22;4024;52.172;5.378;2023-06-22T14:35:38;25.70;99.90
7958;DHT22;4024;52.172;5.378;2023-06-22T14:38:03;25.60;99.90
7958;DHT22;4024;52.172;5.378;2023-06-22T14:40:29;25.60;99.90
7958;DHT22;4024;52.172;5.378;2023-06-22T14:42:54;25.60;99.90
7958;DHT22;4024;52.172;5.378;2023-06-22T14:45:23;25.50;99.90
7958;DHT22;4024;52.172;5.378;2023-06-22T14:47:49;25.40;99.90
7958;DHT22;4024;52.172;5.378;2023-06-22T14:50:14;25.40;99.90
7958;DHT22;4024;52.172;5.378;2023-06-22T14:52:40;25.40;99.90
7958;DHT22;4024;52.172;5.378;2023-06-22T14:55:06;25.30;99.90
7958;DHT22;4024;52.172;5.378;2023-06-22T14:57:32;25.30;99.90
7958;DHT22;4024;52.172;5.378;2023-06-22T14:59:58;25.20;99.90
7958;DHT22;4024;52.172;5.378;2023-06-22T15:02:23;25.20;99.90
7958;DHT22;4024;52.172;5.378;2023-06-22T15:04:49;25.20;99.90
7958;DHT22;4024;52.172;5.378;2023-06-22T15:07:15;25.10;99.90
7958;DHT22;4024;52.172;5.378;2023-06-22T15:09:40;25.10;99.90
7958;DHT22;4024;52.172;5.378;2023-06-22T15:12:08;25.10;99.90
7958;DHT22;4024;52.172;5.378;2023-06-22T15:14:40;25.00;99.90
7958;DHT22;4024;52.172;5.378;2023-06-22T15:17:07;25.00;99.90
7958;DHT22;4024;52.172;5.378;2023-06-22T15:19:38;24.90;99.90
7958;DHT22;4024;52.172;5.378;2023-06-22T15:22:05;24.90;99.90
7958;DHT22;4024;52.172;5.378;2023-06-22T15:24:31;24.80;99.90
7958;DHT22;4024;52.172;5.378;2023-06-22T15:26:57;24.70;99.90
7958;DHT22;4024;52.172;5.378;2023-06-22T15:29:22;24.60;99.90
7958;DHT22;4024;52.172;5.378;2023-06-22T15:31:48;24.70;99.90
7958;DHT22;4024;52.172;5.378;2023-06-22T15:34:14;24.50;99.90
7958;DHT22;4024;52.172;5.378;2023-06-22T15:36:39;24.50;99.90
7958;DHT22;4024;52.172;5.378;2023-06-22T15:39:05;24.40;99.90
7958;DHT22;4024;52.172;5.378;2023-06-22T15:41:31;24.40;99.90
7958;DHT22;4024;52.172;5.378;2023-06-22T15:43:56;24.40;99.90
7958;DHT22;4024;52.172;5.378;2023-06-22T15:46:23;24.40;99.90
7958;DHT22;4024;52.172;5.378;2023-06-22T15:48:49;24.40;99.90
7958;DHT22;4024;52.172;5.378;2023-06-22T15:51:14;24.40;99.90
7958;DHT22;4024;52.172;5.378;2023-06-22T15:53:40;24.40;99.90
7958;DHT22;4024;52.172;5.378;2023-06-22T15:56:06;24.40;99.90
7958;DHT22;4024;52.172;5.378;2023-06-22T15:58:37;24.30;99.90
7958;DHT22;4024;52.172;5.378;2023-06-22T16:01:04;24.40;99.90
7958;DHT22;4024;52.172;5.378;2023-06-22T16:03:31;24.30;99.90
7958;DHT22;4024;52.172;5.378;2023-06-22T16:05:56;24.20;99.90